createdAt,value
2019-03-29T00:01:04.204Z,52.28
2019-03-29T00:03:54.909Z,52.81
2019-03-29T00:06:45.879Z,52.79
2019-03-29T00:09:37.669Z,53.67
2019-03-29T00:12:28.606Z,53.55
2019-03-29T00:15:19.821Z,53.33
2019-03-29T00:18:10.823Z,56.29
2019-03-29T00:21:01.769Z,53.08
2019-03-29T00:24:05.963Z,52.12
2019-03-29T00:26:45.061Z,51.80
2019-03-29T00:29:37.039Z,56.19
2019-03-29T00:32:28.070Z,56.76
2019-03-29T00:35:18.835Z,52.03
2019-03-29T00:38:10.682Z,54.77
2019-03-29T00:41:01.492Z,52.05
2019-03-29T00:43:52.530Z,50.64
2019-03-29T00:46:43.188Z,52.33
2019-03-29T00:49:34.130Z,52.72
2019-03-29T00:52:24.856Z,53.36
2019-03-29T00:55:15.813Z,53.73
2019-03-29T00:58:06.695Z,55.68
2019-03-29T01:00:57.595Z,54.69
2019-03-29T01:03:48.555Z,53.95
2019-03-29T01:06:39.643Z,52.44
2019-03-29T01:09:30.883Z,53.50
2019-03-29T01:12:22.057Z,52.21
2019-03-29T01:15:12.758Z,51.71
2019-03-29T01:18:03.426Z,53.73
2019-03-29T01:20:54.202Z,56.95
2019-03-29T01:23:45.116Z,55.57
2019-03-29T01:26:36.777Z,54.23
2019-03-29T01:29:27.599Z,52.61
2019-03-29T01:32:18.337Z,55.26
2019-03-29T01:35:09.320Z,54.93
2019-03-29T01:38:00.397Z,56.37
2019-03-29T01:40:52.451Z,56.52
2019-03-29T01:43:43.093Z,54.53
2019-03-29T01:46:33.898Z,52.93
2019-03-29T01:49:24.715Z,50.95
2019-03-29T01:52:15.374Z,50.33
2019-03-29T01:55:06.232Z,52.22
2019-03-29T01:57:58.313Z,51.14
2019-03-29T02:00:49.694Z,56.20
2019-03-29T02:03:40.668Z,55.59
2019-03-29T02:06:31.699Z,51.96
2019-03-29T02:09:22.771Z,51.13
2019-03-29T02:12:13.728Z,52.62
2019-03-29T02:15:04.727Z,50.35
2019-03-29T02:17:56.597Z,50.36
2019-03-29T02:20:47.449Z,49.60
2019-03-29T02:23:38.241Z,49.39
2019-03-29T02:26:28.889Z,46.54
2019-03-29T02:29:20.705Z,49.87
2019-03-29T02:32:12.649Z,46.64
2019-03-29T02:35:03.476Z,49.34
2019-03-29T02:37:54.384Z,47.25
2019-03-29T02:40:45.150Z,48.11
2019-03-29T02:43:36.033Z,46.85
2019-03-29T02:46:26.842Z,47.66
2019-03-29T02:49:17.780Z,47.56
2019-03-29T02:52:08.424Z,47.51
2019-03-29T02:54:59.437Z,49.12
2019-03-29T02:57:50.208Z,47.59
2019-03-29T03:00:41.271Z,47.37
2019-03-29T03:03:33.512Z,47.52
2019-03-29T03:06:24.556Z,47.50
2019-03-29T03:09:15.475Z,52.41
2019-03-29T03:12:06.352Z,46.79
2019-03-29T03:14:57.299Z,48.29
2019-03-29T03:17:48.102Z,50.16
2019-03-29T03:20:38.940Z,50.32
2019-03-29T03:23:30.247Z,49.32
2019-03-29T03:26:20.759Z,50.26
2019-03-29T03:29:11.742Z,50.47
2019-03-29T03:32:02.442Z,51.46
2019-03-29T03:34:53.502Z,51.45
2019-03-29T03:37:44.058Z,52.50
2019-03-29T03:40:35.029Z,50.72
2019-03-29T03:43:25.843Z,50.45
2019-03-29T03:46:16.886Z,50.72
2019-03-29T03:49:07.901Z,52.01
2019-03-29T03:51:59.284Z,53.83
2019-03-29T03:54:50.438Z,52.49
2019-03-29T03:57:41.505Z,53.46
2019-03-29T04:00:49.261Z,56.27
2019-03-29T04:03:39.893Z,52.12
2019-03-29T04:06:30.716Z,51.82
2019-03-29T04:09:21.658Z,53.00
2019-03-29T04:12:12.486Z,52.96
2019-03-29T04:15:03.317Z,52.61
2019-03-29T04:17:54.158Z,52.49
2019-03-29T04:20:45.227Z,54.89
2019-03-29T04:23:36.300Z,52.73
2019-03-29T04:26:27.250Z,52.46
2019-03-29T04:29:18.115Z,53.73
2019-03-29T04:32:09.075Z,51.18
2019-03-29T04:34:59.885Z,50.34
2019-03-29T04:37:50.871Z,52.57
2019-03-29T04:40:41.832Z,53.38
2019-03-29T04:43:32.884Z,54.09
2019-03-29T04:46:23.815Z,51.75
2019-03-29T04:49:14.861Z,51.41
2019-03-29T04:52:05.463Z,53.69
2019-03-29T04:54:56.272Z,53.06
2019-03-29T04:57:47.256Z,51.68
2019-03-29T05:00:38.156Z,54.77
2019-03-29T05:03:28.909Z,54.58
2019-03-29T05:06:19.795Z,53.28
2019-03-29T05:09:10.743Z,54.19
2019-03-29T05:12:01.677Z,51.64
2019-03-29T05:14:52.490Z,50.51
2019-03-29T05:17:43.244Z,51.95
2019-03-29T05:20:34.065Z,50.32
2019-03-29T05:23:25.023Z,48.83
2019-03-29T05:26:16.084Z,47.48
2019-03-29T05:29:07.083Z,46.13
2019-03-29T05:31:58.098Z,45.39
2019-03-29T05:34:48.910Z,44.58
2019-03-29T05:37:39.461Z,43.47
2019-03-29T05:40:35.202Z,46.17
2019-03-29T05:43:22.507Z,43.14
2019-03-29T05:46:13.441Z,42.01
2019-03-29T05:49:04.341Z,42.20
2019-03-29T05:51:55.364Z,43.15
2019-03-29T05:54:46.338Z,41.23
2019-03-29T05:57:37.547Z,41.93
2019-03-29T06:00:28.497Z,40.55
2019-03-29T06:03:21.235Z,40.69
2019-03-29T06:06:12.188Z,40.61
2019-03-29T06:09:03.429Z,40.40
2019-03-29T06:11:54.307Z,39.63
2019-03-29T06:14:45.660Z,39.30
2019-03-29T06:17:48.068Z,39.01
2019-03-29T06:20:28.667Z,38.22
2019-03-29T06:23:19.629Z,38.89
2019-03-29T06:26:10.379Z,38.08
2019-03-29T06:29:01.282Z,37.78
2019-03-29T06:31:52.323Z,37.36
2019-03-29T06:34:43.190Z,35.87
2019-03-29T06:37:33.857Z,35.54
2019-03-29T06:40:26.949Z,36.42
2019-03-29T06:43:17.915Z,35.59
2019-03-29T06:46:08.710Z,36.74
2019-03-29T06:48:59.631Z,36.16
2019-03-29T06:51:50.351Z,36.16
2019-03-29T06:54:41.239Z,35.63
2019-03-29T06:57:31.756Z,36.16
2019-03-29T07:00:23.018Z,34.53
2019-03-29T07:03:13.985Z,34.94
2019-03-29T07:06:05.028Z,36.36
2019-03-29T07:08:56.028Z,34.88
2019-03-29T07:11:47.027Z,33.73
2019-03-29T07:14:37.870Z,33.75
2019-03-29T07:17:28.756Z,32.42
2019-03-29T07:20:19.743Z,34.22
2019-03-29T07:23:11.411Z,34.05
2019-03-29T07:26:02.182Z,34.17
2019-03-29T07:28:53.230Z,35.07
2019-03-29T07:31:45.298Z,35.78
2019-03-29T07:34:36.344Z,37.13
2019-03-29T07:37:27.029Z,39.01
2019-03-29T07:40:18.258Z,38.65
2019-03-29T07:43:09.065Z,39.41
2019-03-29T07:46:00.078Z,40.10
2019-03-29T07:48:50.830Z,41.55
2019-03-29T07:51:41.761Z,39.48
2019-03-29T07:54:32.806Z,40.54
2019-03-29T07:57:23.834Z,39.99
2019-03-29T08:00:14.358Z,43.54
2019-03-29T08:03:05.215Z,44.75
2019-03-29T08:05:55.854Z,44.28
2019-03-29T08:08:46.856Z,40.92
2019-03-29T08:11:46.181Z,40.34
2019-03-29T08:14:30.363Z,43.03
2019-03-29T08:17:21.304Z,42.97
2019-03-29T08:20:38.209Z,40.75
2019-03-29T08:23:04.983Z,43.45
2019-03-29T08:25:56.249Z,41.91
2019-03-29T08:28:47.114Z,42.17
2019-03-29T08:31:38.045Z,43.30
2019-03-29T08:34:28.995Z,43.55
2019-03-29T08:37:19.982Z,45.00
2019-03-29T08:40:10.862Z,41.38
2019-03-29T08:43:01.885Z,42.02
2019-03-29T08:45:52.731Z,44.68
2019-03-29T08:48:43.681Z,42.37
2019-03-29T08:51:34.546Z,41.28
2019-03-29T08:54:25.370Z,41.65
2019-03-29T08:57:16.317Z,41.41
2019-03-29T09:00:07.519Z,41.87
2019-03-29T09:02:58.298Z,42.38
2019-03-29T09:05:49.341Z,38.88
2019-03-29T09:08:39.994Z,36.20
2019-03-29T09:11:30.990Z,37.45
2019-03-29T09:14:22.020Z,37.19
2019-03-29T09:17:13.133Z,36.05
2019-03-29T09:20:04.155Z,35.74
2019-03-29T09:22:55.393Z,32.40
2019-03-29T09:25:46.330Z,33.88
2019-03-29T09:28:38.345Z,33.86
2019-03-29T09:31:29.213Z,36.74
2019-03-29T09:34:20.110Z,36.92
2019-03-29T09:37:11.067Z,37.05
2019-03-29T09:40:01.854Z,40.05
2019-03-29T09:43:06.756Z,37.30
2019-03-29T09:45:45.082Z,36.92
2019-03-29T09:48:35.961Z,38.97
2019-03-29T09:51:27.219Z,39.15
2019-03-29T09:54:20.391Z,39.37
2019-03-29T09:57:14.999Z,38.84
2019-03-29T10:00:02.635Z,39.12
2019-03-29T10:02:53.670Z,36.16
2019-03-29T10:05:44.184Z,40.01
2019-03-29T10:08:35.222Z,39.47
2019-03-29T10:11:26.704Z,36.20
2019-03-29T10:14:17.621Z,36.74
2019-03-29T10:17:08.579Z,40.44
2019-03-29T10:20:00.650Z,40.02
2019-03-29T10:22:51.427Z,39.81
2019-03-29T10:25:42.384Z,39.08
2019-03-29T10:28:33.350Z,38.99
2019-03-29T10:31:32.078Z,37.93
2019-03-29T10:34:16.699Z,34.83
2019-03-29T10:37:07.663Z,36.29
2019-03-29T10:39:58.465Z,38.51
2019-03-29T10:42:57.538Z,36.57
2019-03-29T10:45:41.599Z,37.45
2019-03-29T10:48:32.822Z,38.16
2019-03-29T10:51:23.655Z,36.40
2019-03-29T10:54:15.555Z,37.75
2019-03-29T10:57:06.442Z,36.89
2019-03-29T10:59:57.441Z,39.41
2019-03-29T11:02:49.023Z,41.35
2019-03-29T11:05:40.193Z,40.52
2019-03-29T11:08:31.064Z,37.78
2019-03-29T11:11:22.213Z,40.05
2019-03-29T11:14:13.057Z,37.91
2019-03-29T11:17:03.951Z,40.30
2019-03-29T11:19:54.883Z,38.90
2019-03-29T11:22:46.121Z,37.82
2019-03-29T11:25:37.113Z,38.04
2019-03-29T11:28:28.534Z,36.63
2019-03-29T11:31:19.474Z,38.07
2019-03-29T11:34:10.637Z,38.73
2019-03-29T11:37:02.805Z,37.64
2019-03-29T11:39:53.812Z,37.02
2019-03-29T11:42:44.668Z,38.72
2019-03-29T11:45:35.554Z,39.79
2019-03-29T11:48:29.348Z,38.05
2019-03-29T11:51:20.062Z,37.29
2019-03-29T11:54:10.863Z,39.47
2019-03-29T11:57:01.708Z,41.46
2019-03-29T11:59:52.648Z,38.95
2019-03-29T12:02:43.580Z,39.83
2019-03-29T12:05:36.256Z,37.58
2019-03-29T12:08:27.243Z,36.38
2019-03-29T12:11:18.115Z,37.96
2019-03-29T12:14:09.178Z,39.93
2019-03-29T12:17:00.133Z,38.00
2019-03-29T12:19:52.113Z,37.99
2019-03-29T12:22:42.734Z,37.52
2019-03-29T12:25:33.537Z,38.16
2019-03-29T12:28:24.413Z,38.61
2019-03-29T12:31:15.482Z,41.27
2019-03-29T12:34:06.470Z,38.63
2019-03-29T12:36:57.972Z,40.58
2019-03-29T12:39:49.006Z,39.39
2019-03-29T12:42:40.112Z,41.08
2019-03-29T12:45:31.078Z,42.19
2019-03-29T12:48:21.767Z,42.01
2019-03-29T12:51:12.529Z,39.77
2019-03-29T12:54:03.505Z,39.37
2019-03-29T12:56:54.192Z,38.45
2019-03-29T12:59:45.047Z,40.53
2019-03-29T13:02:35.959Z,40.93
2019-03-29T13:05:26.978Z,39.75
2019-03-29T13:08:18.778Z,39.04
2019-03-29T13:11:09.700Z,39.97
2019-03-29T13:14:10.297Z,40.96
2019-03-29T13:16:54.083Z,43.37
2019-03-29T13:19:44.745Z,40.89
2019-03-29T13:22:35.598Z,40.79
2019-03-29T13:25:27.563Z,42.91
2019-03-29T13:28:18.622Z,42.12
2019-03-29T13:31:09.296Z,39.73
2019-03-29T13:34:00.025Z,39.37
2019-03-29T13:36:51.893Z,40.80
2019-03-29T13:39:43.579Z,40.76
2019-03-29T13:42:34.691Z,41.07
2019-03-29T13:45:27.908Z,40.71
2019-03-29T13:48:18.466Z,41.27
2019-03-29T13:51:09.608Z,44.97
2019-03-29T13:54:00.558Z,40.87
2019-03-29T13:56:51.331Z,42.80
2019-03-29T13:59:41.997Z,42.81
2019-03-29T14:02:33.028Z,42.84
2019-03-29T14:05:23.912Z,44.30
2019-03-29T14:08:14.551Z,41.97
2019-03-29T14:11:05.510Z,43.03
2019-03-29T14:13:56.518Z,43.26
2019-03-29T14:16:47.416Z,44.37
2019-03-29T14:19:38.470Z,41.99
2019-03-29T14:22:29.126Z,43.39
2019-03-29T14:25:20.248Z,41.64
2019-03-29T14:28:11.328Z,41.85
2019-03-29T14:31:02.493Z,41.21
2019-03-29T14:33:53.658Z,41.40
2019-03-29T14:36:45.788Z,43.44
2019-03-29T14:39:36.941Z,40.50
2019-03-29T14:42:27.992Z,39.59
2019-03-29T14:45:18.629Z,40.54
2019-03-29T14:48:09.547Z,41.73
2019-03-29T14:51:00.565Z,41.80
2019-03-29T14:53:51.838Z,44.26
2019-03-29T14:56:42.638Z,42.72
2019-03-29T14:59:33.544Z,44.94
2019-03-29T15:02:24.367Z,44.62
2019-03-29T15:05:15.333Z,43.87
2019-03-29T15:08:06.167Z,44.80
2019-03-29T15:10:57.075Z,44.15
2019-03-29T15:13:47.993Z,42.83
2019-03-29T15:16:38.733Z,44.47
2019-03-29T15:19:29.607Z,43.45
2019-03-29T15:22:20.587Z,46.90
2019-03-29T15:25:13.175Z,43.48
2019-03-29T15:28:07.020Z,44.20
2019-03-29T15:30:57.930Z,44.57
2019-03-29T15:33:48.986Z,43.07
2019-03-29T15:36:39.808Z,44.66
2019-03-29T15:39:30.875Z,42.21
2019-03-29T15:42:22.464Z,43.18
2019-03-29T15:45:20.213Z,43.18
2019-03-29T15:48:06.065Z,44.58
2019-03-29T15:50:57.292Z,46.07
2019-03-29T15:53:48.363Z,45.09
2019-03-29T15:56:39.338Z,44.55
2019-03-29T15:59:30.206Z,46.66
2019-03-29T16:02:21.186Z,45.80
2019-03-29T16:05:12.033Z,44.55
2019-03-29T16:08:03.016Z,43.05
2019-03-29T16:10:53.796Z,45.76
2019-03-29T16:13:45.209Z,48.19
2019-03-29T16:16:36.115Z,47.57
2019-03-29T16:19:27.080Z,46.75
2019-03-29T16:22:17.926Z,47.50
2019-03-29T16:25:08.999Z,45.92
2019-03-29T16:27:59.573Z,48.82
2019-03-29T16:30:51.395Z,47.04
2019-03-29T16:33:42.359Z,48.71
2019-03-29T16:36:33.302Z,47.35
2019-03-29T16:39:24.356Z,47.72
2019-03-29T16:42:15.468Z,49.09
2019-03-29T16:45:06.434Z,49.35
2019-03-29T16:47:58.846Z,48.60
2019-03-29T16:50:49.754Z,49.59
2019-03-29T16:53:41.063Z,49.32
2019-03-29T16:56:31.953Z,48.56
2019-03-29T16:59:22.716Z,49.98
2019-03-29T17:02:13.570Z,49.91
2019-03-29T17:05:04.287Z,49.62
2019-03-29T17:07:55.214Z,48.99
2019-03-29T17:10:46.090Z,51.36
2019-03-29T17:13:36.878Z,51.29
2019-03-29T17:16:30.555Z,52.86
2019-03-29T17:19:19.987Z,51.05
2019-03-29T17:22:10.790Z,52.82
2019-03-29T17:25:01.591Z,52.10
2019-03-29T17:27:52.502Z,50.96
2019-03-29T17:31:04.760Z,50.51
2019-03-29T17:33:56.891Z,55.84
2019-03-29T17:36:47.734Z,55.21
2019-03-29T17:39:38.622Z,53.99
2019-03-29T17:42:29.387Z,56.97
2019-03-29T17:45:20.239Z,57.38
2019-03-29T17:48:11.239Z,58.50
2019-03-29T17:51:02.009Z,60.05
2019-03-29T17:53:52.778Z,59.83
2019-03-29T17:56:44.151Z,59.75
2019-03-29T17:59:35.204Z,60.33
2019-03-29T18:02:26.476Z,59.39
2019-03-29T18:05:17.454Z,59.68
2019-03-29T18:08:08.366Z,59.71
2019-03-29T18:10:59.170Z,62.99
2019-03-29T18:13:50.052Z,65.37
2019-03-29T18:16:40.810Z,67.15
2019-03-29T18:19:31.462Z,68.90
2019-03-29T18:22:22.353Z,70.24
2019-03-29T18:25:13.280Z,71.04
2019-03-29T18:28:04.218Z,71.86
2019-03-29T18:30:55.262Z,72.65
2019-03-29T18:33:46.140Z,73.26
2019-03-29T18:36:36.841Z,73.39
2019-03-29T18:39:27.906Z,73.13
2019-03-29T18:42:19.016Z,72.85
2019-03-29T18:45:10.748Z,71.65
2019-03-29T18:48:02.125Z,71.83
2019-03-29T18:50:53.335Z,71.85
2019-03-29T18:53:44.373Z,71.45
2019-03-29T18:56:35.404Z,72.10
2019-03-29T18:59:26.216Z,72.16
2019-03-29T19:02:17.100Z,72.06
2019-03-29T19:05:10.306Z,71.45
2019-03-29T19:08:01.095Z,70.98
2019-03-29T19:10:52.070Z,71.22
2019-03-29T19:13:42.932Z,70.53
2019-03-29T19:16:33.780Z,70.01
2019-03-29T19:19:24.567Z,70.01
2019-03-29T19:22:15.526Z,70.96
2019-03-29T19:25:06.210Z,70.52
2019-03-29T19:27:57.008Z,66.91
2019-03-29T19:30:47.650Z,68.38
2019-03-29T19:33:38.623Z,68.49
2019-03-29T19:36:29.471Z,67.93
2019-03-29T19:39:20.623Z,65.72
2019-03-29T19:42:11.666Z,67.86
2019-03-29T19:45:02.409Z,67.93
2019-03-29T19:47:53.047Z,67.60
2019-03-29T19:50:43.607Z,66.45
2019-03-29T19:53:34.569Z,67.33
2019-03-29T19:56:25.389Z,65.92
2019-03-29T19:59:16.043Z,66.73
2019-03-29T20:02:07.315Z,68.10
2019-03-29T20:04:58.079Z,62.52
2019-03-29T20:07:49.139Z,65.34
2019-03-29T20:10:39.884Z,61.54
2019-03-29T20:13:30.763Z,61.18
2019-03-29T20:16:21.431Z,62.17
2019-03-29T20:19:12.324Z,60.75
2019-03-29T20:22:03.311Z,61.59
2019-03-29T20:24:54.571Z,61.94
2019-03-29T20:27:45.560Z,62.48
2019-03-29T20:30:36.548Z,62.25
2019-03-29T20:33:27.390Z,63.82
2019-03-29T20:36:22.647Z,61.54
2019-03-29T20:39:10.241Z,62.07
2019-03-29T20:42:01.410Z,61.13
2019-03-29T20:44:52.192Z,61.96
2019-03-29T20:47:43.140Z,64.33
2019-03-29T20:50:34.005Z,66.54
2019-03-29T20:53:25.433Z,67.59
2019-03-29T20:56:16.310Z,69.21
2019-03-29T20:59:07.264Z,66.93
2019-03-29T21:01:58.188Z,66.06
2019-03-29T21:04:49.107Z,65.40
2019-03-29T21:07:39.747Z,68.23
2019-03-29T21:10:31.349Z,65.88
2019-03-29T21:13:22.136Z,65.48
2019-03-29T21:16:13.622Z,63.55
2019-03-29T21:19:04.515Z,63.12
2019-03-29T21:21:55.735Z,59.64
2019-03-29T21:24:46.706Z,59.37
2019-03-29T21:27:37.758Z,59.03
2019-03-29T21:30:28.776Z,63.12
2019-03-29T21:33:19.718Z,62.68
2019-03-29T21:36:10.614Z,58.15
2019-03-29T21:39:01.571Z,55.42
2019-03-29T21:41:53.958Z,59.05
2019-03-29T21:44:45.347Z,58.86
2019-03-29T21:47:36.233Z,58.10
2019-03-29T21:50:27.159Z,60.90
2019-03-29T21:53:18.046Z,62.62
2019-03-29T21:56:08.804Z,62.69
2019-03-29T21:58:59.668Z,65.06
2019-03-29T22:01:50.358Z,63.11
2019-03-29T22:04:42.123Z,63.50
2019-03-29T22:07:33.374Z,62.00
2019-03-29T22:10:24.237Z,60.76
2019-03-29T22:13:15.328Z,58.37
2019-03-29T22:16:06.369Z,62.18
2019-03-29T22:18:57.661Z,63.37
2019-03-29T22:21:48.721Z,62.48
2019-03-29T22:24:39.724Z,62.80
2019-03-29T22:27:30.607Z,66.64
2019-03-29T22:30:21.325Z,67.35
2019-03-29T22:33:12.090Z,68.28
2019-03-29T22:36:02.792Z,67.08
2019-03-29T22:38:53.728Z,61.67
2019-03-29T22:41:44.680Z,62.87
2019-03-29T22:44:35.239Z,64.59
2019-03-29T22:47:26.509Z,65.59
2019-03-29T22:50:17.304Z,64.17
2019-03-29T22:53:08.294Z,60.42
2019-03-29T22:55:59.358Z,59.82
2019-03-29T22:58:50.266Z,64.10
2019-03-29T23:01:42.938Z,62.09
2019-03-29T23:04:33.627Z,64.02
2019-03-29T23:07:24.465Z,58.58
2019-03-29T23:10:15.683Z,60.07
2019-03-29T23:13:06.645Z,61.12
2019-03-29T23:15:57.837Z,60.84
2019-03-29T23:18:48.785Z,61.07
2019-03-29T23:21:39.646Z,57.89
2019-03-29T23:24:30.517Z,64.80
2019-03-29T23:27:21.384Z,56.94
2019-03-29T23:30:12.317Z,63.40
2019-03-29T23:33:04.117Z,58.77
2019-03-29T23:35:54.922Z,63.39
2019-03-29T23:38:45.827Z,64.17
2019-03-29T23:41:36.711Z,67.73
2019-03-29T23:44:28.715Z,67.89
2019-03-29T23:47:19.569Z,69.31
2019-03-29T23:50:11.128Z,67.73
2019-03-29T23:53:01.993Z,73.01
2019-03-29T23:55:53.906Z,68.36
2019-03-29T23:58:44.851Z,70.07
